首页
METAR-TAF:

METAR-TAF

机场 :

杰克逊维尔国际机场

杰克逊维尔, 佛罗里达州, 美国

纬度: 30-29-40N, 经度: 081-41-36W, 海拔: 9米

当前天气观测

该预报发布于1小时和5分钟前的21:56 UTC
风速6节,风向东南
温度 27°C
湿度 58%
气压 1015 hPa
能見度: 16.1公里
少量云层高于3000英尺
少量云层高于6000英尺
散云层高于11000英尺
阴天层高于25000英尺

METAR: KJAX 032156Z 13006KT 10SM FEW030 FEW060 SCT110 OVC250 27/18 A2998 RMK AO2 SLP154 T02720183

时间: 19:01 (23:01 UTC)

预报

该预报发布于5小时和41分钟前的17:20 UTC
预报有效从03日的 18点(UTC)到 04日的 18点(UTC)
风速9节,风向东转东南
能見度: 10公里
散云层高于3000英尺
散云层高于9000英尺
多云层高于25000英尺
从 04日的 0200点(UTC)
风速4节,风向
能見度: 10公里
散云层高于6000英尺
多云层高于12000英尺
阴天层高于25000英尺
附近有阵雨
从 04日的 0600点(UTC)
风速3节,风向多变
能見度: 10公里
散云层高于2000英尺
阴天层高于6000英尺
附近有阵雨
几率 30%
从 04日的 09点(UTC)到 04日的 13点(UTC)
能見度: 6.4公里
阴天层高于2000英尺
阵雨, 轻雾
从 04日的 1400点(UTC)
风速7节,风向南转南东
能見度: 10公里
多云层高于2000英尺
阴天层高于6000英尺
附近有阵雨

TAF: KJAX 031720Z 0318/0418 12009KT P6SM SCT030 SCT090 BKN250 FM040200 17004KT P6SM VCSH SCT060 BKN120 OVC250 FM040600 VRB03KT P6SM VCSH SCT020 OVC060 PROB30 0409/0413 4SM SHRA BR OVC020 FM041400 16007KT P6SM VCSH BKN020 OVC060

超过4000个机场的气象观测和天气预报(METAR&TAF报告)。

可查询的气象台以黄色和红色小点在地图上表示。

将鼠标移到小点上方,可查看气象台名称。

然后点击查看天气观测和预报。

如需切换地图:点击带黑十字的绿色按钮放大地图;点击带横线的绿色按钮缩小地图;或者点击绿色箭头查看邻近地区的地图。


METAR-TAF: